createdAt,value
2023-04-25T00:03:20.034Z,12.30
2023-04-25T00:08:24.493Z,9.50
2023-04-25T00:13:28.741Z,10.40
2023-04-25T00:18:34.621Z,11.70
2023-04-25T00:23:40.392Z,9.60
2023-04-25T00:28:44.320Z,10.30
2023-04-25T00:33:49.299Z,8.50
2023-04-25T00:38:55.831Z,9.30
2023-04-25T00:44:01.903Z,8.70
2023-04-25T00:49:05.863Z,11.10
2023-04-25T00:54:09.792Z,8.20
2023-04-25T00:59:14.854Z,7.40
2023-04-25T01:04:19.239Z,7.30
2023-04-25T01:09:25.069Z,7.90
2023-04-25T01:14:28.993Z,7.90
2023-04-25T01:19:33.215Z,9.20
2023-04-25T01:24:37.280Z,9.60
2023-04-25T01:29:41.804Z,7.10
2023-04-25T01:34:45.992Z,7.20
2023-04-25T01:39:51.523Z,8.30
2023-04-25T01:44:55.989Z,6.20
2023-04-25T01:50:00.090Z,7.20
2023-04-25T01:55:04.835Z,6.60
2023-04-25T02:00:12.158Z,6.90
2023-04-25T02:05:19.156Z,6.00
2023-04-25T02:10:23.485Z,5.70
2023-04-25T02:15:47.955Z,7.70
2023-04-25T02:20:55.086Z,6.60
2023-04-25T02:25:59.323Z,6.40
2023-04-25T02:31:03.336Z,6.10
2023-04-25T02:36:08.950Z,4.80
2023-04-25T02:41:13.085Z,5.10
2023-04-25T02:46:22.835Z,5.20
2023-04-25T02:51:34.052Z,5.60
2023-04-25T02:56:38.562Z,5.70
2023-04-25T03:01:44.549Z,6.50
2023-04-25T03:06:48.790Z,4.80
2023-04-25T03:11:53.024Z,5.20
2023-04-25T03:16:57.530Z,4.90
2023-04-25T03:22:01.587Z,4.80
2023-04-25T03:27:06.663Z,5.30
2023-04-25T03:32:11.451Z,5.00
2023-04-25T03:37:15.627Z,4.40
2023-04-25T03:42:21.297Z,3.60
2023-04-25T03:47:26.002Z,4.10
2023-04-25T03:52:30.496Z,5.70
2023-04-25T03:57:34.829Z,4.80
2023-04-25T04:02:41.845Z,4.90
2023-04-25T04:07:48.124Z,5.10
2023-04-25T04:12:54.085Z,3.80
2023-04-25T04:17:58.648Z,5.20
2023-04-25T04:23:03.388Z,4.30
2023-04-25T04:28:08.549Z,3.70
2023-04-25T04:33:32.529Z,3.60
2023-04-25T04:38:42.088Z,3.20
2023-04-25T04:43:52.172Z,3.00
2023-04-25T04:49:07.763Z,3.30
2023-04-25T04:54:21.109Z,3.20
2023-04-25T04:59:42.642Z,3.00
2023-04-25T05:05:25.661Z,3.00
2023-04-25T05:10:48.309Z,2.90
2023-04-25T05:16:15.822Z,2.80
2023-04-25T05:21:31.074Z,3.40
2023-04-25T05:26:53.930Z,2.40
2023-04-25T05:32:26.514Z,2.70
2023-04-25T05:37:32.903Z,2.80
2023-04-25T05:42:46.037Z,3.00
2023-04-25T05:47:58.853Z,3.30
2023-04-25T05:53:35.134Z,2.80
2023-04-25T05:58:40.190Z,3.60
2023-04-25T06:03:45.446Z,5.80
2023-04-25T06:08:49.674Z,5.50
2023-04-25T06:13:53.805Z,3.40
2023-04-25T06:18:58.477Z,5.90
2023-04-25T06:24:04.790Z,4.10
2023-04-25T06:29:10.666Z,4.50
2023-04-25T06:34:15.530Z,5.30
2023-04-25T06:39:21.467Z,4.30
2023-04-25T06:44:27.525Z,7.50
2023-04-25T06:49:33.089Z,10.80
2023-04-25T06:54:43.285Z,7.20
2023-04-25T07:00:00.831Z,9.00
2023-04-25T07:05:07.209Z,15.50
2023-04-25T07:10:11.448Z,11.10
2023-04-25T07:15:16.007Z,4.30
2023-04-25T07:20:22.287Z,4.20
2023-04-25T07:25:26.603Z,4.20
2023-04-25T07:30:31.576Z,6.60
2023-04-25T07:35:35.310Z,5.00
2023-04-25T07:40:39.628Z,5.60
2023-04-25T07:45:46.484Z,6.00
2023-04-25T07:50:51.589Z,3.10
2023-04-25T07:55:54.404Z,6.40
2023-04-25T08:00:59.444Z,3.00
2023-04-25T08:06:24.036Z,5.00
2023-04-25T08:11:44.667Z,6.40
2023-04-25T08:16:50.124Z,6.70
2023-04-25T08:21:57.104Z,8.60
2023-04-25T08:27:08.008Z,6.80
2023-04-25T08:32:13.365Z,18.80
2023-04-25T08:37:21.405Z,49.50
2023-04-25T08:42:38.136Z,121.20
2023-04-25T08:47:44.681Z,167.90
2023-04-25T08:52:51.933Z,203.60
2023-04-25T08:57:57.634Z,177.30
2023-04-25T09:03:02.083Z,158.70
2023-04-25T09:08:08.825Z,147.00
2023-04-25T09:13:19.391Z,150.90
2023-04-25T09:18:59.345Z,147.90
2023-04-25T09:24:03.866Z,146.30
2023-04-25T09:29:09.559Z,130.80
2023-04-25T09:34:18.387Z,118.80
2023-04-25T09:39:30.218Z,126.30
2023-04-25T09:44:47.271Z,126.60
2023-04-25T09:49:53.230Z,107.30
2023-04-25T09:54:59.737Z,95.20
2023-04-25T10:00:13.521Z,104.00
2023-04-25T10:05:21.017Z,93.00
2023-04-25T10:10:30.764Z,92.60
2023-04-25T10:15:40.577Z,91.30
2023-04-25T10:20:44.861Z,90.10
2023-04-25T10:25:50.323Z,78.50
2023-04-25T10:31:06.045Z,78.10
2023-04-25T10:36:19.759Z,77.00
2023-04-25T10:41:24.519Z,71.00
2023-04-25T10:46:32.719Z,78.10
2023-04-25T10:51:54.194Z,71.10
2023-04-25T10:57:00.056Z,63.50
2023-04-25T11:02:14.721Z,57.20
2023-04-25T11:07:52.878Z,62.30
2023-04-25T11:13:04.805Z,51.30
2023-04-25T11:18:11.584Z,50.90
2023-04-25T11:23:17.297Z,45.50
2023-04-25T11:28:26.767Z,48.00
2023-04-25T11:33:32.305Z,46.50
2023-04-25T11:38:36.328Z,50.10
2023-04-25T11:43:42.853Z,30.90
2023-04-25T11:48:48.084Z,21.90
2023-04-25T11:53:52.772Z,17.10
2023-04-25T11:59:04.568Z,15.00
2023-04-25T12:09:25.267Z,17.20
2023-04-25T12:14:31.322Z,18.50
2023-04-25T12:19:36.982Z,20.60
2023-04-25T12:24:41.507Z,12.80
2023-04-25T12:29:54.023Z,22.60
2023-04-25T12:34:58.223Z,55.40
2023-04-25T12:40:02.622Z,84.30
2023-04-25T12:45:08.373Z,132.70
2023-04-25T12:50:14.266Z,129.90
2023-04-25T12:55:18.514Z,124.00
2023-04-25T13:00:22.480Z,116.70
2023-04-25T13:05:27.152Z,109.30
2023-04-25T13:10:31.336Z,108.50
2023-04-25T13:15:35.246Z,98.20
2023-04-25T13:20:39.283Z,100.60
2023-04-25T13:25:43.218Z,91.20
2023-04-25T13:30:49.502Z,87.80
2023-04-25T13:35:58.341Z,93.70
2023-04-25T13:41:02.366Z,84.20
2023-04-25T13:46:06.581Z,80.10
2023-04-25T13:51:10.530Z,77.80
2023-04-25T13:56:14.452Z,74.30
2023-04-25T14:01:18.658Z,76.40
2023-04-25T14:06:25.500Z,70.60
2023-04-25T14:11:29.432Z,72.60
2023-04-25T14:16:33.658Z,79.60
2023-04-25T14:21:37.917Z,72.60
2023-04-25T14:26:43.388Z,73.20
2023-04-25T14:31:47.453Z,72.00
2023-04-25T14:36:51.511Z,62.00
2023-04-25T14:41:55.569Z,70.30
2023-04-25T14:46:59.786Z,60.20
2023-04-25T14:52:04.808Z,51.60
2023-04-25T14:57:09.208Z,51.50
2023-04-25T15:02:13.401Z,51.00
2023-04-25T15:07:18.490Z,52.30
2023-04-25T15:12:22.670Z,50.50
2023-04-25T15:17:26.975Z,44.60
2023-04-25T15:22:31.309Z,43.70
2023-04-25T15:27:39.243Z,42.10
2023-04-25T15:32:44.123Z,39.70
2023-04-25T15:37:47.911Z,36.10
2023-04-25T15:42:53.073Z,40.40
2023-04-25T15:47:57.568Z,42.40
2023-04-25T15:53:02.152Z,44.20
2023-04-25T15:58:06.184Z,30.10
2023-04-25T16:03:11.045Z,33.70
2023-04-25T16:08:18.248Z,27.80
2023-04-25T16:13:23.624Z,28.20
2023-04-25T16:18:27.845Z,28.30
2023-04-25T16:23:31.997Z,30.90
2023-04-25T16:28:36.433Z,28.60
2023-04-25T16:33:40.914Z,28.90
2023-04-25T16:38:44.815Z,26.40
2023-04-25T16:43:48.589Z,23.10
2023-04-25T16:48:54.821Z,36.10
2023-04-25T16:54:02.535Z,31.80
2023-04-25T16:59:07.181Z,22.10
2023-04-25T17:04:12.936Z,21.60
2023-04-25T17:09:18.026Z,22.30
2023-04-25T17:14:22.654Z,19.20
2023-04-25T17:19:26.681Z,19.40
2023-04-25T17:24:30.612Z,20.70
2023-04-25T17:29:37.094Z,19.40
2023-04-25T17:34:43.692Z,20.50
2023-04-25T17:39:50.353Z,20.20
2023-04-25T17:44:58.049Z,18.00
2023-04-25T17:50:02.320Z,16.00
2023-04-25T17:55:09.181Z,19.80
2023-04-25T18:00:14.441Z,16.40
2023-04-25T18:05:21.700Z,19.90
2023-04-25T18:10:26.459Z,16.10
2023-04-25T18:15:32.017Z,17.40
2023-04-25T18:20:37.378Z,13.20
2023-04-25T18:25:43.720Z,22.20
2023-04-25T18:30:49.955Z,16.00
2023-04-25T18:35:59.397Z,13.50
2023-04-25T18:41:33.834Z,18.20
2023-04-25T18:46:34.090Z,18.60
2023-04-25T18:51:40.271Z,18.20
2023-04-25T18:56:45.633Z,17.90
2023-04-25T19:01:53.222Z,21.20
2023-04-25T19:07:00.657Z,18.80
2023-04-25T19:12:07.282Z,18.50
2023-04-25T19:17:13.766Z,17.40
2023-04-25T19:22:21.687Z,14.00
2023-04-25T19:27:26.766Z,16.40
2023-04-25T19:32:33.520Z,16.90
2023-04-25T19:37:40.246Z,18.90
2023-04-25T19:42:46.896Z,16.40
2023-04-25T19:47:52.827Z,14.80
2023-04-25T19:52:59.104Z,15.30
2023-04-25T19:58:07.050Z,21.60
2023-04-25T20:03:14.257Z,29.20
2023-04-25T20:08:58.025Z,93.70
2023-04-25T20:14:07.530Z,94.10
2023-04-25T20:19:13.454Z,113.30
2023-04-25T20:24:17.897Z,110.80
2023-04-25T20:29:24.054Z,98.80
2023-04-25T20:34:30.794Z,108.70
2023-04-25T20:39:36.496Z,100.10
2023-04-25T20:44:41.493Z,92.60
2023-04-25T20:49:45.939Z,84.00
2023-04-25T20:54:53.172Z,84.90
2023-04-25T20:59:57.818Z,84.40
2023-04-25T21:05:02.584Z,83.00
2023-04-25T21:10:07.310Z,82.20
2023-04-25T21:15:12.706Z,71.70
2023-04-25T21:20:19.141Z,70.80
2023-04-25T21:25:37.335Z,64.00
2023-04-25T21:30:44.727Z,56.90
2023-04-25T21:35:53.681Z,43.50
2023-04-25T21:41:00.759Z,44.10
2023-04-25T21:46:21.401Z,45.20
2023-04-25T21:51:33.456Z,45.80
2023-04-25T21:56:45.597Z,41.00
2023-04-25T22:01:59.193Z,39.00
2023-04-25T22:07:13.048Z,42.60
2023-04-25T22:12:23.534Z,33.80
2023-04-25T22:18:16.957Z,37.30
2023-04-25T22:23:21.196Z,35.20
2023-04-25T22:28:25.941Z,32.00
2023-04-25T22:33:34.632Z,36.90
2023-04-25T22:38:41.166Z,42.90
2023-04-25T22:43:45.503Z,36.50
2023-04-25T22:48:49.984Z,40.10
2023-04-25T22:53:54.300Z,28.30
2023-04-25T22:58:59.030Z,30.50
2023-04-25T23:04:03.253Z,27.20
2023-04-25T23:09:11.050Z,29.20
2023-04-25T23:14:17.309Z,30.40
2023-04-25T23:19:22.540Z,26.50
2023-04-25T23:24:27.415Z,28.60
2023-04-25T23:29:34.710Z,31.00
2023-04-25T23:34:39.795Z,27.20
2023-04-25T23:39:51.799Z,30.50
2023-04-25T23:44:57.922Z,26.70
2023-04-25T23:50:03.629Z,28.10
2023-04-25T23:55:08.375Z,26.20
